sensor_id;sensor_type;location;lat;lon;timestamp;pressure;altitude;pressure_sealevel;temperature;humidity
4469;BME280;2247;42.666;23.292;2023-03-03T00:00:46;94427.19;;;6.84;70.85
4469;BME280;2247;42.666;23.292;2023-03-03T00:03:17;94412.53;;;6.88;70.80
4469;BME280;2247;42.666;23.292;2023-03-03T00:05:44;94429.72;;;6.79;71.25
4469;BME280;2247;42.666;23.292;2023-03-03T00:08:11;94414.72;;;6.69;71.58
4469;BME280;2247;42.666;23.292;2023-03-03T00:10:39;94422.75;;;6.63;72.35
4469;BME280;2247;42.666;23.292;2023-03-03T00:13:12;94417.25;;;6.64;72.25
4469;BME280;2247;42.666;23.292;2023-03-03T00:15:40;94411.06;;;6.70;72.29
4469;BME280;2247;42.666;23.292;2023-03-03T00:18:20;94405.38;;;6.79;72.22
4469;BME280;2247;42.666;23.292;2023-03-03T00:20:49;94414.81;;;6.80;71.93
4469;BME280;2247;42.666;23.292;2023-03-03T00:23:30;94396.63;;;6.95;71.39
4469;BME280;2247;42.666;23.292;2023-03-03T00:26:01;94415.25;;;6.98;71.28
4469;BME280;2247;42.666;23.292;2023-03-03T00:28:29;94404.53;;;7.00;71.23
4469;BME280;2247;42.666;23.292;2023-03-03T00:30:58;94402.94;;;6.99;70.97
4469;BME280;2247;42.666;23.292;2023-03-03T00:33:29;94394.84;;;7.00;71.23
4469;BME280;2247;42.666;23.292;2023-03-03T00:36:23;94403.41;;;7.18;70.62
4469;BME280;2247;42.666;23.292;2023-03-03T00:38:59;94393.38;;;7.09;70.83
4469;BME280;2247;42.666;23.292;2023-03-03T00:41:38;94388.25;;;7.25;70.66
4469;BME280;2247;42.666;23.292;2023-03-03T00:44:37;94385.22;;;7.38;70.26
4469;BME280;2247;42.666;23.292;2023-03-03T00:47:17;94383.84;;;7.30;70.01
4469;BME280;2247;42.666;23.292;2023-03-03T00:49:51;94377.88;;;7.40;69.98
4469;BME280;2247;42.666;23.292;2023-03-03T00:52:18;94372.13;;;7.43;69.62
4469;BME280;2247;42.666;23.292;2023-03-03T00:54:45;94369.75;;;7.41;69.93
4469;BME280;2247;42.666;23.292;2023-03-03T00:57:12;94373.50;;;7.50;69.71
4469;BME280;2247;42.666;23.292;2023-03-03T00:59:39;94361.44;;;7.49;69.33
4469;BME280;2247;42.666;23.292;2023-03-03T01:02:06;94357.56;;;7.57;69.15
4469;BME280;2247;42.666;23.292;2023-03-03T01:04:33;94353.91;;;7.58;68.96
4469;BME280;2247;42.666;23.292;2023-03-03T01:07:02;94354.03;;;7.41;69.66
4469;BME280;2247;42.666;23.292;2023-03-03T01:09:29;94350.47;;;7.53;69.47
4469;BME280;2247;42.666;23.292;2023-03-03T01:11:56;94350.25;;;7.59;69.29
4469;BME280;2247;42.666;23.292;2023-03-03T01:14:23;94359.63;;;7.55;69.28
4469;BME280;2247;42.666;23.292;2023-03-03T01:16:50;94346.84;;;7.64;69.08
4469;BME280;2247;42.666;23.292;2023-03-03T01:19:17;94347.41;;;7.66;68.90
4469;BME280;2247;42.666;23.292;2023-03-03T01:21:44;94345.00;;;7.59;69.04
4469;BME280;2247;42.666;23.292;2023-03-03T01:24:13;94355.53;;;7.69;68.82
4469;BME280;2247;42.666;23.292;2023-03-03T01:26:39;94354.00;;;7.73;68.53
4469;BME280;2247;42.666;23.292;2023-03-03T01:29:06;94351.53;;;7.57;68.73
4469;BME280;2247;42.666;23.292;2023-03-03T01:31:33;94359.97;;;7.69;68.46
4469;BME280;2247;42.666;23.292;2023-03-03T01:34:00;94351.59;;;7.67;68.68
4469;BME280;2247;42.666;23.292;2023-03-03T01:36:28;94341.59;;;7.59;68.83
4469;BME280;2247;42.666;23.292;2023-03-03T01:38:55;94347.19;;;7.77;68.45
4469;BME280;2247;42.666;23.292;2023-03-03T01:41:26;94349.88;;;7.87;68.18
4469;BME280;2247;42.666;23.292;2023-03-03T01:43:53;94343.56;;;7.88;68.06
4469;BME280;2247;42.666;23.292;2023-03-03T01:46:45;94341.50;;;7.96;67.83
4469;BME280;2247;42.666;23.292;2023-03-03T01:49:16;94324.00;;;8.06;67.33
4469;BME280;2247;42.666;23.292;2023-03-03T01:51:48;94332.41;;;8.08;66.92
4469;BME280;2247;42.666;23.292;2023-03-03T01:54:20;94338.66;;;8.02;67.27
4469;BME280;2247;42.666;23.292;2023-03-03T01:56:50;94334.72;;;8.00;67.23
4469;BME280;2247;42.666;23.292;2023-03-03T01:59:22;94335.03;;;8.13;66.90
4469;BME280;2247;42.666;23.292;2023-03-03T02:01:51;94345.22;;;8.00;67.26
4469;BME280;2247;42.666;23.292;2023-03-03T02:04:18;94335.03;;;8.08;67.35
4469;BME280;2247;42.666;23.292;2023-03-03T02:06:49;94331.81;;;7.96;67.51
4469;BME280;2247;42.666;23.292;2023-03-03T02:09:22;94344.19;;;8.06;67.39
4469;BME280;2247;42.666;23.292;2023-03-03T02:11:57;94323.88;;;7.81;67.18
4469;BME280;2247;42.666;23.292;2023-03-03T02:14:25;94331.22;;;7.84;68.03
4469;BME280;2247;42.666;23.292;2023-03-03T02:16:52;94333.34;;;7.87;67.99
4469;BME280;2247;42.666;23.292;2023-03-03T02:19:24;94329.69;;;7.88;67.90
4469;BME280;2247;42.666;23.292;2023-03-03T02:21:54;94334.41;;;7.86;68.00
4469;BME280;2247;42.666;23.292;2023-03-03T02:24:25;94334.94;;;7.88;68.21
4469;BME280;2247;42.666;23.292;2023-03-03T02:26:54;94335.50;;;8.00;67.91
4469;BME280;2247;42.666;23.292;2023-03-03T02:29:21;94338.06;;;7.85;68.21
4469;BME280;2247;42.666;23.292;2023-03-03T02:31:48;94339.63;;;7.81;68.42
4469;BME280;2247;42.666;23.292;2023-03-03T02:34:15;94333.53;;;7.75;68.59
4469;BME280;2247;42.666;23.292;2023-03-03T02:36:42;94329.88;;;7.76;68.39
4469;BME280;2247;42.666;23.292;2023-03-03T02:39:13;94341.63;;;7.69;68.98
4469;BME280;2247;42.666;23.292;2023-03-03T02:41:45;94339.00;;;7.69;68.63
4469;BME280;2247;42.666;23.292;2023-03-03T02:44:18;94337.25;;;7.79;68.68
4469;BME280;2247;42.666;23.292;2023-03-03T02:46:47;94338.53;;;7.77;68.64
4469;BME280;2247;42.666;23.292;2023-03-03T02:49:17;94341.41;;;7.75;68.32
4469;BME280;2247;42.666;23.292;2023-03-03T02:51:44;94341.84;;;7.62;68.69
4469;BME280;2247;42.666;23.292;2023-03-03T02:54:13;94344.31;;;7.74;68.76
4469;BME280;2247;42.666;23.292;2023-03-03T02:56:41;94334.16;;;7.93;68.18
4469;BME280;2247;42.666;23.292;2023-03-03T02:59:09;94338.84;;;7.85;67.92
4469;BME280;2247;42.666;23.292;2023-03-03T03:01:38;94333.28;;;7.77;68.21
4469;BME280;2247;42.666;23.292;2023-03-03T03:04:07;94335.88;;;7.72;68.44
4469;BME280;2247;42.666;23.292;2023-03-03T03:06:35;94325.41;;;7.72;68.41
4469;BME280;2247;42.666;23.292;2023-03-03T03:09:02;94327.94;;;7.57;68.71
4469;BME280;2247;42.666;23.292;2023-03-03T03:11:30;94312.88;;;7.37;69.17
4469;BME280;2247;42.666;23.292;2023-03-03T03:13:57;94330.19;;;7.43;69.53
4469;BME280;2247;42.666;23.292;2023-03-03T03:16:23;94324.69;;;7.39;69.74
4469;BME280;2247;42.666;23.292;2023-03-03T03:18:52;94321.53;;;7.37;70.07
4469;BME280;2247;42.666;23.292;2023-03-03T03:21:19;94327.09;;;7.46;70.08
4469;BME280;2247;42.666;23.292;2023-03-03T03:23:46;94321.09;;;7.56;69.96
4469;BME280;2247;42.666;23.292;2023-03-03T03:26:13;94321.50;;;7.74;69.52
4469;BME280;2247;42.666;23.292;2023-03-03T03:28:40;94320.97;;;7.77;69.13
4469;BME280;2247;42.666;23.292;2023-03-03T03:31:08;94321.97;;;7.66;69.42
4469;BME280;2247;42.666;23.292;2023-03-03T03:33:35;94324.31;;;7.68;69.19
4469;BME280;2247;42.666;23.292;2023-03-03T03:36:05;94319.63;;;7.70;69.31
4469;BME280;2247;42.666;23.292;2023-03-03T03:38:33;94317.00;;;7.70;69.33
4469;BME280;2247;42.666;23.292;2023-03-03T03:41:01;94314.38;;;7.70;69.11
4469;BME280;2247;42.666;23.292;2023-03-03T03:43:29;94320.41;;;7.70;69.16
4469;BME280;2247;42.666;23.292;2023-03-03T03:45:56;94315.94;;;7.71;69.26
4469;BME280;2247;42.666;23.292;2023-03-03T03:48:23;94310.38;;;7.62;69.34
4469;BME280;2247;42.666;23.292;2023-03-03T03:50:50;94306.78;;;7.73;69.52
4469;BME280;2247;42.666;23.292;2023-03-03T03:53:18;94307.53;;;7.69;69.48
4469;BME280;2247;42.666;23.292;2023-03-03T03:55:46;94316.66;;;7.61;70.20
4469;BME280;2247;42.666;23.292;2023-03-03T03:58:13;94309.31;;;7.53;70.18
4469;BME280;2247;42.666;23.292;2023-03-03T04:00:42;94312.16;;;7.46;70.11
4469;BME280;2247;42.666;23.292;2023-03-03T04:03:09;94296.63;;;7.40;70.80
4469;BME280;2247;42.666;23.292;2023-03-03T04:05:36;94305.03;;;7.42;70.53
4469;BME280;2247;42.666;23.292;2023-03-03T04:08:03;94299.63;;;7.59;70.41
4469;BME280;2247;42.666;23.292;2023-03-03T04:10:32;94299.88;;;7.57;70.00
4469;BME280;2247;42.666;23.292;2023-03-03T04:12:58;94293.84;;;7.57;69.81
4469;BME280;2247;42.666;23.292;2023-03-03T04:15:25;94298.59;;;7.60;69.83
4469;BME280;2247;42.666;23.292;2023-03-03T04:17:52;94300.34;;;7.49;70.38
4469;BME280;2247;42.666;23.292;2023-03-03T04:20:19;94285.41;;;7.49;70.12
4469;BME280;2247;42.666;23.292;2023-03-03T04:22:46;94295.44;;;7.58;70.02
4469;BME280;2247;42.666;23.292;2023-03-03T04:25:14;94293.06;;;7.61;70.25
4469;BME280;2247;42.666;23.292;2023-03-03T04:27:43;94292.09;;;7.72;70.42
4469;BME280;2247;42.666;23.292;2023-03-03T04:30:12;94296.59;;;7.82;70.05
4469;BME280;2247;42.666;23.292;2023-03-03T04:32:39;94290.34;;;7.93;69.63
4469;BME280;2247;42.666;23.292;2023-03-03T04:35:07;94277.22;;;7.88;69.36
4469;BME280;2247;42.666;23.292;2023-03-03T04:37:35;94290.34;;;7.88;69.54
4469;BME280;2247;42.666;23.292;2023-03-03T04:40:04;94291.16;;;7.94;68.86
4469;BME280;2247;42.666;23.292;2023-03-03T04:42:31;94295.78;;;7.81;69.17
4469;BME280;2247;42.666;23.292;2023-03-03T04:45:00;94291.38;;;7.87;69.59
4469;BME280;2247;42.666;23.292;2023-03-03T04:47:27;94297.69;;;7.96;68.67
4469;BME280;2247;42.666;23.292;2023-03-03T04:49:54;94296.88;;;7.80;69.36
4469;BME280;2247;42.666;23.292;2023-03-03T04:52:21;94295.25;;;7.74;69.45
4469;BME280;2247;42.666;23.292;2023-03-03T04:54:47;94294.47;;;7.74;69.64
4469;BME280;2247;42.666;23.292;2023-03-03T04:57:14;94298.38;;;7.71;69.61
4469;BME280;2247;42.666;23.292;2023-03-03T04:59:41;94294.75;;;7.77;69.89
4469;BME280;2247;42.666;23.292;2023-03-03T05:02:10;94296.88;;;7.80;69.88
4469;BME280;2247;42.666;23.292;2023-03-03T05:04:37;94306.25;;;7.71;69.90
4469;BME280;2247;42.666;23.292;2023-03-03T05:07:04;94301.28;;;7.75;70.07
4469;BME280;2247;42.666;23.292;2023-03-03T05:09:31;94295.31;;;7.84;69.94
4469;BME280;2247;42.666;23.292;2023-03-03T05:11:58;94303.97;;;7.90;69.79
4469;BME280;2247;42.666;23.292;2023-03-03T05:14:25;94306.09;;;7.93;69.45
4469;BME280;2247;42.666;23.292;2023-03-03T05:16:52;94305.34;;;8.03;69.76
4469;BME280;2247;42.666;23.292;2023-03-03T05:19:21;94313.28;;;8.18;68.83
4469;BME280;2247;42.666;23.292;2023-03-03T05:21:49;94301.47;;;8.15;68.41
4469;BME280;2247;42.666;23.292;2023-03-03T05:24:15;94306.19;;;8.23;68.58
4469;BME280;2247;42.666;23.292;2023-03-03T05:26:42;94305.69;;;8.26;68.64
4469;BME280;2247;42.666;23.292;2023-03-03T05:29:09;94315.69;;;8.29;68.58
4469;BME280;2247;42.666;23.292;2023-03-03T05:31:36;94305.94;;;8.25;68.46
4469;BME280;2247;42.666;23.292;2023-03-03T05:34:03;94311.97;;;8.15;68.47
4469;BME280;2247;42.666;23.292;2023-03-03T05:36:31;94308.56;;;8.15;68.76
4469;BME280;2247;42.666;23.292;2023-03-03T05:38:58;94310.94;;;8.21;68.56
4469;BME280;2247;42.666;23.292;2023-03-03T05:41:25;94313.28;;;8.18;68.69
4469;BME280;2247;42.666;23.292;2023-03-03T05:43:52;94318.28;;;8.19;68.93
4469;BME280;2247;42.666;23.292;2023-03-03T05:46:19;94323.28;;;8.26;68.53
4469;BME280;2247;42.666;23.292;2023-03-03T05:48:46;94315.63;;;8.14;68.57
4469;BME280;2247;42.666;23.292;2023-03-03T05:51:13;94320.84;;;8.09;69.19
4469;BME280;2247;42.666;23.292;2023-03-03T05:53:41;94310.00;;;7.90;69.43
4469;BME280;2247;42.666;23.292;2023-03-03T05:56:08;94319.69;;;7.85;70.30
4469;BME280;2247;42.666;23.292;2023-03-03T05:58:35;94317.41;;;7.99;69.77
4469;BME280;2247;42.666;23.292;2023-03-03T06:01:02;94316.97;;;8.22;69.52
4469;BME280;2247;42.666;23.292;2023-03-03T06:03:29;94284.25;;;7.82;69.19
4469;BME280;2247;42.666;23.292;2023-03-03T06:05:56;94316.91;;;8.02;69.05
4469;BME280;2247;42.666;23.292;2023-03-03T06:08:23;94321.03;;;7.87;68.97
4469;BME280;2247;42.666;23.292;2023-03-03T06:10:51;94326.50;;;7.81;69.32
4469;BME280;2247;42.666;23.292;2023-03-03T06:13:19;94303.34;;;7.68;69.62
4469;BME280;2247;42.666;23.292;2023-03-03T06:15:47;94307.78;;;7.62;69.69
4469;BME280;2247;42.666;23.292;2023-03-03T06:18:14;94333.16;;;7.51;70.21
4469;BME280;2247;42.666;23.292;2023-03-03T06:20:41;94327.91;;;7.51;70.25
4469;BME280;2247;42.666;23.292;2023-03-03T06:23:08;94329.19;;;7.49;70.22
4469;BME280;2247;42.666;23.292;2023-03-03T06:25:35;94333.41;;;7.55;70.53
4469;BME280;2247;42.666;23.292;2023-03-03T06:28:03;94334.22;;;7.56;70.19
4469;BME280;2247;42.666;23.292;2023-03-03T06:30:29;94341.13;;;7.72;70.16
4469;BME280;2247;42.666;23.292;2023-03-03T06:32:56;94333.75;;;7.69;69.94
4469;BME280;2247;42.666;23.292;2023-03-03T06:35:23;94338.06;;;7.85;70.13
4469;BME280;2247;42.666;23.292;2023-03-03T06:37:50;94339.09;;;7.79;69.90
4469;BME280;2247;42.666;23.292;2023-03-03T06:40:17;94335.66;;;7.78;69.85
4469;BME280;2247;42.666;23.292;2023-03-03T06:42:44;94336.22;;;7.85;69.79
4469;BME280;2247;42.666;23.292;2023-03-03T06:45:13;94330.22;;;7.90;70.23
4469;BME280;2247;42.666;23.292;2023-03-03T06:47:40;94326.31;;;7.98;70.21
4469;BME280;2247;42.666;23.292;2023-03-03T06:50:09;94332.09;;;7.95;69.84
4469;BME280;2247;42.666;23.292;2023-03-03T06:52:37;94343.31;;;7.90;68.99
4469;BME280;2247;42.666;23.292;2023-03-03T06:55:11;94335.03;;;7.61;70.38
4469;BME280;2247;42.666;23.292;2023-03-03T06:57:38;94339.69;;;7.96;69.93
4469;BME280;2247;42.666;23.292;2023-03-03T07:00:16;94342.53;;;7.89;69.58
4469;BME280;2247;42.666;23.292;2023-03-03T07:02:44;94328.63;;;7.89;69.48
4469;BME280;2247;42.666;23.292;2023-03-03T07:05:14;94341.31;;;8.07;69.59
4469;BME280;2247;42.666;23.292;2023-03-03T07:07:41;94344.25;;;8.21;68.88
4469;BME280;2247;42.666;23.292;2023-03-03T07:10:16;94342.66;;;8.15;69.23
4469;BME280;2247;42.666;23.292;2023-03-03T07:12:44;94340.91;;;8.30;69.36
4469;BME280;2247;42.666;23.292;2023-03-03T07:17:51;94321.38;;;8.06;69.19
4469;BME280;2247;42.666;23.292;2023-03-03T07:20:21;94351.69;;;8.39;68.31
4469;BME280;2247;42.666;23.292;2023-03-03T07:22:48;94344.31;;;8.31;67.86
4469;BME280;2247;42.666;23.292;2023-03-03T07:25:23;94351.84;;;8.17;68.58
4469;BME280;2247;42.666;23.292;2023-03-03T07:27:55;94348.53;;;8.37;68.18
4469;BME280;2247;42.666;23.292;2023-03-03T07:30:25;94324.16;;;8.47;67.86
4469;BME280;2247;42.666;23.292;2023-03-03T07:32:55;94340.75;;;8.57;67.65
4469;BME280;2247;42.666;23.292;2023-03-03T07:35:35;94323.91;;;8.48;67.34
4469;BME280;2247;42.666;23.292;2023-03-03T07:38:15;94338.91;;;8.73;67.19
4469;BME280;2247;42.666;23.292;2023-03-03T07:40:47;94338.38;;;8.66;66.99
4469;BME280;2247;42.666;23.292;2023-03-03T07:43:33;94332.34;;;8.65;66.64
4469;BME280;2247;42.666;23.292;2023-03-03T07:46:13;94336.00;;;8.64;66.78
4469;BME280;2247;42.666;23.292;2023-03-03T07:48:45;94332.91;;;8.83;67.12
4469;BME280;2247;42.666;23.292;2023-03-03T07:51:18;94338.97;;;8.98;67.25
4469;BME280;2247;42.666;23.292;2023-03-03T07:53:47;94332.66;;;9.09;66.82
4469;BME280;2247;42.666;23.292;2023-03-03T07:56:21;94324.25;;;8.97;66.12
4469;BME280;2247;42.666;23.292;2023-03-03T07:58:50;94331.09;;;9.03;66.59
4469;BME280;2247;42.666;23.292;2023-03-03T08:01:38;94328.19;;;9.00;65.88
4469;BME280;2247;42.666;23.292;2023-03-03T08:04:31;94328.47;;;9.03;65.63
4469;BME280;2247;42.666;23.292;2023-03-03T08:07:11;94328.97;;;9.00;65.83
4469;BME280;2247;42.666;23.292;2023-03-03T08:09:46;94330.81;;;8.95;66.40
4469;BME280;2247;42.666;23.292;2023-03-03T08:12:22;94334.75;;;8.97;67.08
4469;BME280;2247;42.666;23.292;2023-03-03T08:14:50;94328.19;;;9.00;66.99
4469;BME280;2247;42.666;23.292;2023-03-03T08:17:20;94318.72;;;8.99;66.73
4469;BME280;2247;42.666;23.292;2023-03-03T08:19:49;94324.78;;;9.30;66.00
4469;BME280;2247;42.666;23.292;2023-03-03T08:22:18;94327.91;;;9.27;65.42
4469;BME280;2247;42.666;23.292;2023-03-03T08:24:47;94322.69;;;9.17;65.94
4469;BME280;2247;42.666;23.292;2023-03-03T08:27:14;94320.56;;;9.24;66.10
4469;BME280;2247;42.666;23.292;2023-03-03T08:29:40;94319.00;;;9.18;66.52
4469;BME280;2247;42.666;23.292;2023-03-03T08:32:07;94313.22;;;9.31;66.43
4469;BME280;2247;42.666;23.292;2023-03-03T08:34:34;94314.25;;;9.30;65.08
4469;BME280;2247;42.666;23.292;2023-03-03T08:37:02;94312.94;;;9.27;64.56
4469;BME280;2247;42.666;23.292;2023-03-03T08:39:29;94296.66;;;9.30;64.92
4469;BME280;2247;42.666;23.292;2023-03-03T08:41:56;94313.44;;;9.34;64.86
4469;BME280;2247;42.666;23.292;2023-03-03T08:44:23;94312.94;;;9.37;65.54
4469;BME280;2247;42.666;23.292;2023-03-03T08:46:50;94315.56;;;9.27;65.36
4469;BME280;2247;42.666;23.292;2023-03-03T08:49:17;94314.00;;;9.16;65.68
4469;BME280;2247;42.666;23.292;2023-03-03T08:51:43;94314.00;;;9.21;65.70
4469;BME280;2247;42.666;23.292;2023-03-03T08:54:11;94315.28;;;9.54;65.84
4469;BME280;2247;42.666;23.292;2023-03-03T08:56:39;94316.81;;;9.70;65.81
4469;BME280;2247;42.666;23.292;2023-03-03T08:59:06;94314.44;;;9.69;64.69
4469;BME280;2247;42.666;23.292;2023-03-03T09:01:33;94299.00;;;9.47;64.85
4469;BME280;2247;42.666;23.292;2023-03-03T09:04:00;94312.91;;;9.58;64.50
4469;BME280;2247;42.666;23.292;2023-03-03T09:06:27;94320.78;;;9.63;64.49
4469;BME280;2247;42.666;23.292;2023-03-03T09:08:54;94320.28;;;9.51;64.37
4469;BME280;2247;42.666;23.292;2023-03-03T09:11:25;94306.91;;;9.22;65.00
4469;BME280;2247;42.666;23.292;2023-03-03T09:13:58;94323.44;;;9.53;65.56
4469;BME280;2247;42.666;23.292;2023-03-03T09:16:33;94313.44;;;9.49;65.00
4469;BME280;2247;42.666;23.292;2023-03-03T09:19:20;94308.44;;;9.48;65.07
4469;BME280;2247;42.666;23.292;2023-03-03T09:21:49;94307.41;;;9.39;65.09
4469;BME280;2247;42.666;23.292;2023-03-03T09:24:23;94294.78;;;9.41;65.33
4469;BME280;2247;42.666;23.292;2023-03-03T09:26:52;94311.88;;;9.59;66.02
4469;BME280;2247;42.666;23.292;2023-03-03T09:29:24;94316.28;;;9.68;65.61
4469;BME280;2247;42.666;23.292;2023-03-03T09:31:53;94312.66;;;9.54;65.58
4469;BME280;2247;42.666;23.292;2023-03-03T09:34:23;94313.72;;;9.43;65.81
4469;BME280;2247;42.666;23.292;2023-03-03T09:36:52;94313.72;;;9.53;65.74
4469;BME280;2247;42.666;23.292;2023-03-03T09:39:21;94315.28;;;9.44;66.25
4469;BME280;2247;42.666;23.292;2023-03-03T09:42:17;94319.00;;;9.38;66.45
4469;BME280;2247;42.666;23.292;2023-03-03T09:45:11;94321.31;;;9.55;65.83
4469;BME280;2247;42.666;23.292;2023-03-03T09:47:59;94306.34;;;9.45;65.72
4469;BME280;2247;42.666;23.292;2023-03-03T09:50:38;94308.94;;;9.65;65.56
4469;BME280;2247;42.666;23.292;2023-03-03T09:53:18;94321.28;;;9.70;66.46
4469;BME280;2247;42.666;23.292;2023-03-03T09:55:54;94317.13;;;9.54;65.37
4469;BME280;2247;42.666;23.292;2023-03-03T09:58:40;94307.13;;;9.61;65.56
4469;BME280;2247;42.666;23.292;2023-03-03T10:03:57;94311.84;;;9.64;65.95
4469;BME280;2247;42.666;23.292;2023-03-03T10:06:37;94310.53;;;9.61;65.29
4469;BME280;2247;42.666;23.292;2023-03-03T10:09:38;94309.97;;;9.79;64.30
4469;BME280;2247;42.666;23.292;2023-03-03T10:12:14;94302.84;;;9.85;63.65
4469;BME280;2247;42.666;23.292;2023-03-03T10:14:59;94298.88;;;9.93;63.66
4469;BME280;2247;42.666;23.292;2023-03-03T10:17:42;94292.84;;;9.87;63.10
4469;BME280;2247;42.666;23.292;2023-03-03T10:20:28;94294.34;;;10.03;63.80
4469;BME280;2247;42.666;23.292;2023-03-03T10:23:06;94303.84;;;10.09;63.56
4469;BME280;2247;42.666;23.292;2023-03-03T10:25:41;94285.63;;;10.23;63.59
4469;BME280;2247;42.666;23.292;2023-03-03T10:31:11;94285.38;;;10.19;63.00
4469;BME280;2247;42.666;23.292;2023-03-03T10:33:52;94278.25;;;10.15;63.35
4469;BME280;2247;42.666;23.292;2023-03-03T10:36:37;94286.88;;;10.36;63.26
4469;BME280;2247;42.666;23.292;2023-03-03T10:39:31;94284.34;;;10.64;62.04
4469;BME280;2247;42.666;23.292;2023-03-03T10:42:20;94286.72;;;10.61;61.36
4469;BME280;2247;42.666;23.292;2023-03-03T10:44:59;94280.94;;;10.59;61.50
4469;BME280;2247;42.666;23.292;2023-03-03T10:47:59;94283.41;;;10.45;62.66
4469;BME280;2247;42.666;23.292;2023-03-03T10:50:35;94275.94;;;10.62;61.88
4469;BME280;2247;42.666;23.292;2023-03-03T10:53:20;94272.78;;;10.60;61.36
4469;BME280;2247;42.666;23.292;2023-03-03T10:55:56;94268.56;;;10.64;61.76
4469;BME280;2247;42.666;23.292;2023-03-03T10:58:45;94266.34;;;10.77;61.09
4469;BME280;2247;42.666;23.292;2023-03-03T11:01:18;94272.59;;;10.86;60.74
4469;BME280;2247;42.666;23.292;2023-03-03T11:04:07;94261.00;;;10.87;61.19
4469;BME280;2247;42.666;23.292;2023-03-03T11:06:44;94265.91;;;10.64;62.11
4469;BME280;2247;42.666;23.292;2023-03-03T11:09:23;94267.50;;;10.60;62.92
4469;BME280;2247;42.666;23.292;2023-03-03T11:11:59;94259.13;;;10.53;62.61
4469;BME280;2247;42.666;23.292;2023-03-03T11:14:37;94256.59;;;10.33;63.08
4469;BME280;2247;42.666;23.292;2023-03-03T11:17:16;94253.75;;;10.30;64.09
4469;BME280;2247;42.666;23.292;2023-03-03T11:19:59;94241.94;;;10.22;64.58
4469;BME280;2247;42.666;23.292;2023-03-03T11:22:37;94252.03;;;10.49;64.06
4469;BME280;2247;42.666;23.292;2023-03-03T11:25:21;94231.41;;;10.61;62.88
4469;BME280;2247;42.666;23.292;2023-03-03T11:28:07;94242.91;;;10.75;62.05
4469;BME280;2247;42.666;23.292;2023-03-03T11:31:05;94248.47;;;10.69;61.78
4469;BME280;2247;42.666;23.292;2023-03-03T11:33:41;94249.03;;;10.65;62.35
4469;BME280;2247;42.666;23.292;2023-03-03T11:36:25;94250.50;;;10.43;63.59
4469;BME280;2247;42.666;23.292;2023-03-03T11:38:56;94251.22;;;10.53;63.35
4469;BME280;2247;42.666;23.292;2023-03-03T11:41:33;94246.72;;;10.54;63.73
4469;BME280;2247;42.666;23.292;2023-03-03T11:44:12;94237.69;;;10.65;63.49
4469;BME280;2247;42.666;23.292;2023-03-03T11:46:45;94244.94;;;10.44;64.93
4469;BME280;2247;42.666;23.292;2023-03-03T11:49:19;94235.00;;;10.36;64.42
4469;BME280;2247;42.666;23.292;2023-03-03T11:51:57;94233.34;;;10.45;63.51
4469;BME280;2247;42.666;23.292;2023-03-03T11:54:33;94243.44;;;10.33;64.19
4469;BME280;2247;42.666;23.292;2023-03-03T11:57:13;94221.91;;;10.21;64.65
4469;BME280;2247;42.666;23.292;2023-03-03T11:59:52;94235.00;;;10.36;64.64
4469;BME280;2247;42.666;23.292;2023-03-03T12:02:51;94224.78;;;10.30;63.84
4469;BME280;2247;42.666;23.292;2023-03-03T12:05:40;94227.44;;;10.14;64.58
4469;BME280;2247;42.666;23.292;2023-03-03T12:08:21;94221.69;;;10.07;65.21
4469;BME280;2247;42.666;23.292;2023-03-03T12:10:56;94227.25;;;10.01;65.09
4469;BME280;2247;42.666;23.292;2023-03-03T12:13:35;94227.56;;;9.89;65.81
4469;BME280;2247;42.666;23.292;2023-03-03T12:16:11;94228.84;;;10.02;65.50
4469;BME280;2247;42.666;23.292;2023-03-03T12:18:51;94204.97;;;9.78;66.23
4469;BME280;2247;42.666;23.292;2023-03-03T12:21:33;94228.06;;;10.01;66.93
4469;BME280;2247;42.666;23.292;2023-03-03T12:24:24;94211.47;;;10.01;67.09
4469;BME280;2247;42.666;23.292;2023-03-03T12:27:06;94229.03;;;10.15;66.08
4469;BME280;2247;42.666;23.292;2023-03-03T12:29:41;94228.25;;;10.10;66.58
4469;BME280;2247;42.666;23.292;2023-03-03T12:32:21;94223.09;;;9.89;66.50
4469;BME280;2247;42.666;23.292;2023-03-03T12:34:57;94242.59;;;9.88;66.80
4469;BME280;2247;42.666;23.292;2023-03-03T12:37:47;94230.25;;;9.79;67.29
4469;BME280;2247;42.666;23.292;2023-03-03T12:40:20;94241.00;;;9.82;67.59
4469;BME280;2247;42.666;23.292;2023-03-03T12:43:13;94238.97;;;9.74;68.51
4469;BME280;2247;42.666;23.292;2023-03-03T12:45:53;94243.72;;;9.62;68.99
4469;BME280;2247;42.666;23.292;2023-03-03T12:48:27;94245.03;;;9.65;69.15
4469;BME280;2247;42.666;23.292;2023-03-03T12:51:05;94219.03;;;9.43;69.19
4469;BME280;2247;42.666;23.292;2023-03-03T12:56:52;94243.78;;;9.27;70.54
4469;BME280;2247;42.666;23.292;2023-03-03T12:59:26;94230.69;;;9.06;71.09
4469;BME280;2247;42.666;23.292;2023-03-03T13:02:05;94231.72;;;9.16;71.51
4469;BME280;2247;42.666;23.292;2023-03-03T13:04:48;94228.31;;;9.15;72.02
4469;BME280;2247;42.666;23.292;2023-03-03T13:07:24;94235.13;;;9.26;72.33
4469;BME280;2247;42.666;23.292;2023-03-03T13:10:07;94228.81;;;9.32;71.86
4469;BME280;2247;42.666;23.292;2023-03-03T13:12:45;94230.66;;;9.22;71.88
4469;BME280;2247;42.666;23.292;2023-03-03T13:15:30;94230.66;;;9.22;71.85
4469;BME280;2247;42.666;23.292;2023-03-03T13:18:08;94222.25;;;9.20;72.04
4469;BME280;2247;42.666;23.292;2023-03-03T13:20:44;94206.38;;;9.55;70.12
4469;BME280;2247;42.666;23.292;2023-03-03T13:23:21;94197.69;;;9.55;69.96
4469;BME280;2247;42.666;23.292;2023-03-03T13:25:54;94209.31;;;9.54;70.67
4469;BME280;2247;42.666;23.292;2023-03-03T13:28:32;94216.38;;;9.58;70.89
4469;BME280;2247;42.666;23.292;2023-03-03T13:31:07;94221.56;;;9.78;70.21
4469;BME280;2247;42.666;23.292;2023-03-03T13:33:39;94216.97;;;10.04;68.98
4469;BME280;2247;42.666;23.292;2023-03-03T13:36:13;94215.19;;;9.95;68.81
4469;BME280;2247;42.666;23.292;2023-03-03T13:38:47;94225.59;;;10.20;68.24
4469;BME280;2247;42.666;23.292;2023-03-03T13:41:22;94225.56;;;10.30;67.64
4469;BME280;2247;42.666;23.292;2023-03-03T13:44:03;94227.06;;;10.41;67.72
4469;BME280;2247;42.666;23.292;2023-03-03T13:46:39;94223.41;;;10.32;67.90
4469;BME280;2247;42.666;23.292;2023-03-03T13:49:27;94193.50;;;10.13;67.74
4469;BME280;2247;42.666;23.292;2023-03-03T13:52:02;94199.84;;;10.07;68.51
4469;BME280;2247;42.666;23.292;2023-03-03T13:54:51;94222.16;;;10.24;68.29
4469;BME280;2247;42.666;23.292;2023-03-03T13:57:47;94212.66;;;10.23;67.66
4469;BME280;2247;42.666;23.292;2023-03-03T14:00:31;94215.66;;;10.07;68.03